createdAt,value
2023-03-29T00:00:00.278Z,3.72
2023-03-29T00:02:30.568Z,3.67
2023-03-29T00:05:02.030Z,3.47
2023-03-29T00:07:33.361Z,3.90
2023-03-29T00:10:01.940Z,3.50
2023-03-29T00:12:29.296Z,3.80
2023-03-29T00:14:56.664Z,3.55
2023-03-29T00:17:23.808Z,4.30
2023-03-29T00:19:51.360Z,3.88
2023-03-29T00:22:18.637Z,4.07
2023-03-29T00:24:47.781Z,4.28
2023-03-29T00:27:17.947Z,3.60
2023-03-29T00:29:45.392Z,4.07
2023-03-29T00:32:13.144Z,4.10
2023-03-29T00:34:42.684Z,3.88
2023-03-29T00:37:10.171Z,4.47
2023-03-29T00:39:37.537Z,3.95
2023-03-29T00:42:04.754Z,4.60
2023-03-29T00:44:56.821Z,4.78
2023-03-29T00:47:43.306Z,4.72
2023-03-29T00:50:43.142Z,4.22
2023-03-29T00:53:45.744Z,4.50
2023-03-29T00:56:19.592Z,5.13
2023-03-29T00:59:05.015Z,5.10
2023-03-29T01:01:54.990Z,4.70
2023-03-29T01:04:36.204Z,4.55
2023-03-29T01:07:21.316Z,5.07
2023-03-29T01:10:13.258Z,5.30
2023-03-29T01:13:01.728Z,5.15
2023-03-29T01:15:29.495Z,5.20
2023-03-29T01:17:58.395Z,5.13
2023-03-29T01:20:44.061Z,4.72
2023-03-29T01:23:51.253Z,5.60
2023-03-29T01:26:44.001Z,5.53
2023-03-29T01:29:20.503Z,5.22
2023-03-29T01:31:54.896Z,4.55
2023-03-29T01:34:38.904Z,5.18
2023-03-29T01:37:18.376Z,5.15
2023-03-29T01:39:46.782Z,5.20
2023-03-29T01:42:26.965Z,4.80
2023-03-29T01:45:10.137Z,5.20
2023-03-29T01:47:56.739Z,5.50
2023-03-29T01:50:35.992Z,5.25
2023-03-29T01:53:34.317Z,5.32
2023-03-29T01:56:19.747Z,6.00
2023-03-29T01:58:57.108Z,5.90
2023-03-29T02:01:30.013Z,5.88
2023-03-29T02:04:03.189Z,5.47
2023-03-29T02:06:34.104Z,5.88
2023-03-29T02:09:02.651Z,5.90
2023-03-29T02:11:30.014Z,5.90
2023-03-29T02:13:57.611Z,6.15
2023-03-29T02:16:24.881Z,6.07
2023-03-29T02:18:56.259Z,6.15
2023-03-29T02:21:41.180Z,5.85
2023-03-29T02:24:13.379Z,6.20
2023-03-29T02:26:40.779Z,6.35
2023-03-29T02:29:08.114Z,6.30
2023-03-29T02:31:50.586Z,6.20
2023-03-29T02:34:28.661Z,6.18
2023-03-29T02:37:06.839Z,7.18
2023-03-29T02:39:35.822Z,6.60
2023-03-29T02:42:05.088Z,6.97
2023-03-29T02:44:36.577Z,7.38
2023-03-29T02:47:13.877Z,7.10
2023-03-29T02:49:41.174Z,7.85
2023-03-29T02:52:17.887Z,7.75
2023-03-29T02:54:50.306Z,7.95
2023-03-29T02:57:18.168Z,8.40
2023-03-29T02:59:45.333Z,9.27
2023-03-29T03:02:13.759Z,8.60
2023-03-29T03:04:43.271Z,9.38
2023-03-29T03:07:10.596Z,9.32
2023-03-29T03:09:38.419Z,9.85
2023-03-29T03:12:06.309Z,10.32
2023-03-29T03:14:34.039Z,10.38
2023-03-29T03:17:04.433Z,10.23
2023-03-29T03:19:32.811Z,9.90
2023-03-29T03:22:00.196Z,10.68
2023-03-29T03:24:28.162Z,10.45
2023-03-29T03:26:56.820Z,10.70
2023-03-29T03:29:26.118Z,11.13
2023-03-29T03:32:13.542Z,11.10
2023-03-29T03:34:58.966Z,11.43
2023-03-29T03:37:28.185Z,11.35
2023-03-29T03:39:55.722Z,11.73
2023-03-29T03:42:24.045Z,11.85
2023-03-29T03:44:51.703Z,11.35
2023-03-29T03:50:19.792Z,10.95
2023-03-29T03:52:47.225Z,11.32
2023-03-29T03:55:15.396Z,11.23
2023-03-29T03:57:42.845Z,11.73
2023-03-29T04:00:19.340Z,11.85
2023-03-29T04:02:56.524Z,11.75
2023-03-29T04:05:24.676Z,12.18
2023-03-29T04:07:52.558Z,11.63
2023-03-29T04:10:20.796Z,12.40
2023-03-29T04:12:54.106Z,12.90
2023-03-29T04:15:21.594Z,11.77
2023-03-29T04:18:00.662Z,12.35
2023-03-29T04:20:34.444Z,12.05
2023-03-29T04:23:02.208Z,11.18
2023-03-29T04:25:30.436Z,11.77
2023-03-29T04:28:00.645Z,11.68
2023-03-29T04:30:40.706Z,11.48
2023-03-29T04:33:18.728Z,10.77
2023-03-29T04:35:51.101Z,11.05
2023-03-29T04:38:23.125Z,10.68
2023-03-29T04:40:51.700Z,10.65
2023-03-29T04:43:40.226Z,10.68
2023-03-29T04:46:20.846Z,10.40
2023-03-29T04:49:00.167Z,10.45
2023-03-29T04:51:36.108Z,10.80
2023-03-29T04:54:03.437Z,10.27
2023-03-29T04:56:35.592Z,10.13
2023-03-29T04:59:23.773Z,11.35
2023-03-29T05:01:51.649Z,10.93
2023-03-29T05:04:18.834Z,10.70
2023-03-29T05:07:03.003Z,10.93
2023-03-29T05:09:32.027Z,10.20
2023-03-29T05:12:02.147Z,10.60
2023-03-29T05:14:35.264Z,10.55
2023-03-29T05:17:05.188Z,10.68
2023-03-29T05:19:33.684Z,11.20
2023-03-29T05:22:00.887Z,10.65
2023-03-29T05:24:27.974Z,10.80
2023-03-29T05:27:00.925Z,10.23
2023-03-29T05:29:34.495Z,10.98
2023-03-29T05:34:45.259Z,10.93
2023-03-29T05:37:13.436Z,11.30
2023-03-29T05:39:49.708Z,11.05
2023-03-29T05:42:22.511Z,10.75
2023-03-29T05:44:54.919Z,10.75
2023-03-29T05:47:22.009Z,10.98
2023-03-29T05:49:49.090Z,10.40
2023-03-29T05:52:20.962Z,10.23
2023-03-29T05:54:48.094Z,10.30
2023-03-29T05:57:16.214Z,10.20
2023-03-29T05:59:43.919Z,10.75
2023-03-29T06:02:12.498Z,10.98
2023-03-29T06:04:45.445Z,10.43
2023-03-29T06:07:24.805Z,10.80
2023-03-29T06:10:24.728Z,11.07
2023-03-29T06:13:00.153Z,11.17
2023-03-29T06:15:28.155Z,10.70
2023-03-29T06:18:03.869Z,11.80
2023-03-29T06:20:31.792Z,10.90
2023-03-29T06:23:04.530Z,11.10
2023-03-29T06:25:31.897Z,10.18
2023-03-29T06:27:59.108Z,10.27
2023-03-29T06:30:26.141Z,10.73
2023-03-29T06:32:57.881Z,10.35
2023-03-29T06:35:47.230Z,10.68
2023-03-29T06:38:17.683Z,9.77
2023-03-29T06:41:13.613Z,10.10
2023-03-29T06:43:59.127Z,10.07
2023-03-29T06:46:33.162Z,9.98
2023-03-29T06:49:05.758Z,9.93
2023-03-29T06:51:57.051Z,10.20
2023-03-29T06:54:24.479Z,9.65
2023-03-29T06:57:00.490Z,9.85
2023-03-29T06:59:29.103Z,9.77
2023-03-29T07:01:59.680Z,10.57
2023-03-29T07:04:41.798Z,9.63
2023-03-29T07:07:22.193Z,10.05
2023-03-29T07:09:55.658Z,9.25
2023-03-29T07:12:46.273Z,9.15
2023-03-29T07:15:16.161Z,9.70
2023-03-29T07:18:15.333Z,8.82
2023-03-29T07:20:43.128Z,9.20
2023-03-29T07:23:11.460Z,9.07
2023-03-29T07:25:39.279Z,9.18
2023-03-29T07:28:07.710Z,8.98
2023-03-29T07:30:35.118Z,8.55
2023-03-29T07:33:13.428Z,9.25
2023-03-29T07:35:48.025Z,8.88
2023-03-29T07:38:15.644Z,9.07
2023-03-29T07:40:48.422Z,8.93
2023-03-29T07:43:34.453Z,8.93
2023-03-29T07:46:04.783Z,9.25
2023-03-29T07:48:34.521Z,8.25
2023-03-29T07:51:06.343Z,8.48
2023-03-29T07:53:53.790Z,8.85
2023-03-29T07:56:41.270Z,8.77
2023-03-29T07:59:18.948Z,8.75
2023-03-29T08:01:55.252Z,8.85
2023-03-29T08:04:33.521Z,8.70
2023-03-29T08:07:29.979Z,8.25
2023-03-29T08:09:59.791Z,8.65
2023-03-29T08:12:41.233Z,7.93
2023-03-29T08:15:09.970Z,8.23
2023-03-29T08:17:38.380Z,7.97
2023-03-29T08:20:09.844Z,8.02
2023-03-29T08:22:40.497Z,7.70
2023-03-29T08:25:09.187Z,7.47
2023-03-29T08:27:42.490Z,7.75
2023-03-29T08:30:11.891Z,7.57
2023-03-29T08:32:40.145Z,7.60
2023-03-29T08:35:09.800Z,6.82
2023-03-29T08:38:02.459Z,7.90
2023-03-29T08:40:30.634Z,7.53
2023-03-29T08:43:53.874Z,7.43
2023-03-29T08:47:02.091Z,7.40
2023-03-29T08:52:23.441Z,8.00
2023-03-29T08:54:55.926Z,7.25
2023-03-29T08:57:49.048Z,7.30
2023-03-29T09:00:46.096Z,7.45
2023-03-29T09:03:42.543Z,7.38
2023-03-29T09:06:20.723Z,7.53
2023-03-29T09:08:52.698Z,7.55
2023-03-29T09:11:24.059Z,6.80
2023-03-29T09:14:49.150Z,6.78
2023-03-29T09:17:25.656Z,6.82
2023-03-29T09:20:48.024Z,7.05
2023-03-29T09:23:38.681Z,6.53
2023-03-29T09:26:53.146Z,6.72
2023-03-29T09:29:41.429Z,6.65
2023-03-29T09:32:31.985Z,6.93
2023-03-29T09:35:29.056Z,6.68
2023-03-29T09:37:57.861Z,7.13
2023-03-29T09:40:49.352Z,6.63
2023-03-29T09:43:32.005Z,6.57
2023-03-29T09:46:09.355Z,6.82
2023-03-29T09:48:40.656Z,6.93
2023-03-29T09:51:10.754Z,8.93
2023-03-29T09:53:39.681Z,6.93
2023-03-29T09:56:19.112Z,9.82
2023-03-29T09:58:51.881Z,6.85
2023-03-29T10:01:20.264Z,7.13
2023-03-29T10:03:53.804Z,7.38
2023-03-29T10:06:26.828Z,7.57
2023-03-29T10:08:59.326Z,7.65
2023-03-29T10:11:52.911Z,7.75
2023-03-29T10:14:37.172Z,8.05
2023-03-29T10:17:29.580Z,8.35
2023-03-29T10:20:01.472Z,7.65
2023-03-29T10:22:41.588Z,8.32
2023-03-29T10:25:18.027Z,7.85
2023-03-29T10:27:47.442Z,8.65
2023-03-29T10:30:24.475Z,8.20
2023-03-29T10:32:58.810Z,8.48
2023-03-29T10:35:40.103Z,9.52
2023-03-29T10:38:13.440Z,8.98
2023-03-29T10:40:47.143Z,10.00
2023-03-29T10:43:17.629Z,9.10
2023-03-29T10:45:49.123Z,8.98
2023-03-29T10:48:17.914Z,9.40
2023-03-29T10:50:52.986Z,8.88
2023-03-29T10:53:23.946Z,8.68
2023-03-29T10:55:57.221Z,8.98
2023-03-29T10:58:48.404Z,8.60
2023-03-29T11:01:35.039Z,9.40
2023-03-29T11:04:40.077Z,9.23
2023-03-29T11:07:10.523Z,8.43
2023-03-29T11:09:59.443Z,8.60
2023-03-29T11:12:57.577Z,8.50
2023-03-29T11:15:51.200Z,8.10
2023-03-29T11:18:50.303Z,8.20
2023-03-29T11:21:31.407Z,7.95
2023-03-29T11:24:35.028Z,7.55
2023-03-29T11:27:35.784Z,7.57
2023-03-29T11:30:27.847Z,7.60
2023-03-29T11:33:12.627Z,7.68
2023-03-29T11:35:54.650Z,7.20
2023-03-29T11:38:42.793Z,7.43
2023-03-29T11:41:26.945Z,7.00
2023-03-29T11:44:06.528Z,7.10
2023-03-29T11:46:52.929Z,6.65
2023-03-29T11:49:46.240Z,6.72
2023-03-29T11:52:33.746Z,6.95
2023-03-29T11:55:12.313Z,6.40
2023-03-29T11:57:54.443Z,6.43
2023-03-29T12:00:31.522Z,6.55
2023-03-29T12:03:13.890Z,6.78
2023-03-29T12:05:47.560Z,6.55
2023-03-29T12:08:29.644Z,7.30
2023-03-29T12:11:21.340Z,7.18
2023-03-29T12:13:54.402Z,6.57
2023-03-29T12:16:57.053Z,6.57
2023-03-29T12:19:50.471Z,7.20
2023-03-29T12:22:17.758Z,6.45
2023-03-29T12:24:49.314Z,7.00
2023-03-29T12:27:38.946Z,6.82
2023-03-29T12:30:41.421Z,7.00
2023-03-29T12:33:59.755Z,6.50
2023-03-29T12:37:28.249Z,7.03
2023-03-29T12:40:36.899Z,7.18
2023-03-29T12:43:31.883Z,7.05
2023-03-29T12:46:32.728Z,7.07
2023-03-29T12:49:33.217Z,7.15
2023-03-29T12:52:19.025Z,7.28
2023-03-29T12:54:59.658Z,7.28
2023-03-29T12:57:43.224Z,7.47
2023-03-29T13:00:27.283Z,7.97
2023-03-29T13:03:18.682Z,7.57
2023-03-29T13:05:46.993Z,7.60
2023-03-29T13:08:26.910Z,8.13
2023-03-29T13:10:56.306Z,7.22
2023-03-29T13:13:43.594Z,8.00
2023-03-29T13:16:17.710Z,7.53
2023-03-29T13:19:18.419Z,7.97
2023-03-29T13:22:00.401Z,8.35
2023-03-29T13:24:49.162Z,8.45
2023-03-29T13:27:53.008Z,7.85
2023-03-29T13:30:40.951Z,7.93
2023-03-29T13:33:52.804Z,8.75
2023-03-29T13:36:41.070Z,8.13
2023-03-29T13:39:19.668Z,8.05
2023-03-29T13:41:51.702Z,8.32
2023-03-29T13:44:48.931Z,8.15
2023-03-29T13:47:41.793Z,8.25
2023-03-29T13:50:29.490Z,7.97
2023-03-29T13:53:04.085Z,8.43
2023-03-29T13:55:38.475Z,8.55
2023-03-29T13:58:13.794Z,8.40
2023-03-29T14:00:54.727Z,7.78
2023-03-29T14:03:29.874Z,8.52
2023-03-29T14:06:01.512Z,8.05
2023-03-29T14:08:40.020Z,7.68
2023-03-29T14:11:23.911Z,7.68
2023-03-29T14:13:57.624Z,7.55
2023-03-29T14:16:31.912Z,7.53
2023-03-29T14:19:16.214Z,7.57
2023-03-29T14:21:44.424Z,7.50
2023-03-29T14:24:17.718Z,8.25
2023-03-29T14:26:47.801Z,8.00
2023-03-29T14:29:15.745Z,7.78
2023-03-29T14:31:43.236Z,9.27
2023-03-29T14:34:17.049Z,8.90
2023-03-29T14:36:46.957Z,8.63
2023-03-29T14:39:18.071Z,8.98
2023-03-29T14:41:54.958Z,8.88
2023-03-29T14:44:25.969Z,8.63
2023-03-29T14:46:53.886Z,8.57
2023-03-29T14:49:23.162Z,8.63
2023-03-29T14:51:51.702Z,8.18
2023-03-29T14:54:27.848Z,8.20
2023-03-29T14:56:55.968Z,7.93
2023-03-29T14:59:36.785Z,7.95
2023-03-29T15:02:22.558Z,8.05
2023-03-29T15:05:07.750Z,7.90
2023-03-29T15:07:40.180Z,8.38
2023-03-29T15:10:08.274Z,7.85
2023-03-29T15:12:37.908Z,8.80
2023-03-29T15:15:07.686Z,8.25
2023-03-29T15:17:50.112Z,8.75
2023-03-29T15:20:28.652Z,8.88
2023-03-29T15:23:25.950Z,9.48
2023-03-29T15:26:06.594Z,9.05
2023-03-29T15:28:36.038Z,8.77
2023-03-29T15:31:11.895Z,9.18
2023-03-29T15:33:42.411Z,9.05
2023-03-29T15:36:12.503Z,8.80
2023-03-29T15:38:44.608Z,8.55
2023-03-29T15:41:13.983Z,8.07
2023-03-29T15:43:42.069Z,8.23
2023-03-29T15:46:12.750Z,8.35
2023-03-29T15:48:40.171Z,8.27
2023-03-29T15:51:07.541Z,8.20
2023-03-29T15:53:35.860Z,8.13
2023-03-29T15:56:07.472Z,8.18
2023-03-29T15:58:35.820Z,6.80
2023-03-29T16:01:37.201Z,6.63
2023-03-29T16:04:09.631Z,6.68
2023-03-29T16:06:36.929Z,7.25
2023-03-29T16:09:06.415Z,8.07
2023-03-29T16:11:34.175Z,8.13
2023-03-29T16:14:02.897Z,8.65
2023-03-29T16:16:30.180Z,9.30
2023-03-29T16:18:57.296Z,8.68
2023-03-29T16:21:24.508Z,9.65
2023-03-29T16:23:51.760Z,10.52
2023-03-29T16:26:18.988Z,10.10
2023-03-29T16:28:46.156Z,10.35
2023-03-29T16:31:14.299Z,10.05
2023-03-29T16:33:41.924Z,10.85
2023-03-29T16:36:10.808Z,10.82
2023-03-29T16:38:38.380Z,10.88
2023-03-29T16:41:06.158Z,11.32
2023-03-29T16:43:33.669Z,11.80
2023-03-29T16:46:00.862Z,11.70
2023-03-29T16:48:28.196Z,11.68
2023-03-29T16:50:55.434Z,12.07
2023-03-29T16:53:23.661Z,12.13
2023-03-29T16:55:50.884Z,12.05
2023-03-29T16:58:17.966Z,12.65
2023-03-29T17:00:48.183Z,12.02
2023-03-29T17:03:16.853Z,12.35
2023-03-29T17:05:52.796Z,12.60
2023-03-29T17:08:21.325Z,13.30
2023-03-29T17:10:55.710Z,12.65
2023-03-29T17:13:24.019Z,13.27
2023-03-29T17:15:52.775Z,13.07
2023-03-29T17:18:21.529Z,13.35
2023-03-29T17:20:51.356Z,13.60
2023-03-29T17:23:19.040Z,13.30
2023-03-29T17:25:46.185Z,12.95
2023-03-29T17:28:13.745Z,14.05
2023-03-29T17:30:41.157Z,14.20
2023-03-29T17:33:09.503Z,13.95
2023-03-29T17:35:36.809Z,14.02
2023-03-29T17:38:03.979Z,13.70
2023-03-29T17:40:31.129Z,13.52
2023-03-29T17:42:58.151Z,14.57
2023-03-29T17:45:25.702Z,15.23
2023-03-29T17:47:52.855Z,14.10
2023-03-29T17:50:19.916Z,13.93
2023-03-29T17:52:47.390Z,14.60
2023-03-29T17:55:14.442Z,15.30
2023-03-29T17:57:42.412Z,15.25
2023-03-29T18:00:13.424Z,14.68
2023-03-29T18:02:41.494Z,14.57
2023-03-29T18:05:10.131Z,14.90
2023-03-29T18:07:37.690Z,15.23
2023-03-29T18:10:06.320Z,16.10
2023-03-29T18:12:33.421Z,15.88
2023-03-29T18:15:01.009Z,15.35
2023-03-29T18:17:28.330Z,14.82
2023-03-29T18:19:55.771Z,15.55
2023-03-29T18:22:24.038Z,15.80
2023-03-29T18:24:51.129Z,15.90
2023-03-29T18:27:18.988Z,14.93
2023-03-29T18:29:46.307Z,15.57
2023-03-29T18:32:13.746Z,15.63
2023-03-29T18:34:40.976Z,15.90
2023-03-29T18:37:14.453Z,14.95
2023-03-29T18:39:41.869Z,14.80
2023-03-29T18:42:11.972Z,14.95
2023-03-29T18:44:40.653Z,14.25
2023-03-29T18:47:08.426Z,14.75
2023-03-29T18:49:36.610Z,15.02
2023-03-29T18:52:04.884Z,15.02
2023-03-29T18:54:32.039Z,14.95
2023-03-29T18:57:00.411Z,16.15
2023-03-29T18:59:27.553Z,15.40
2023-03-29T19:01:54.812Z,15.27
2023-03-29T19:04:23.059Z,15.90
2023-03-29T19:06:51.774Z,15.30
2023-03-29T19:09:18.746Z,16.48
2023-03-29T19:11:48.009Z,16.13
2023-03-29T19:14:17.390Z,15.77
2023-03-29T19:16:44.586Z,16.08
2023-03-29T19:19:12.755Z,14.73
2023-03-29T19:21:39.844Z,15.10
2023-03-29T19:24:07.811Z,14.75
2023-03-29T19:26:35.438Z,14.43
2023-03-29T19:29:02.556Z,14.75
2023-03-29T19:31:29.614Z,15.20
2023-03-29T19:33:56.720Z,14.85
2023-03-29T19:36:23.856Z,14.45
2023-03-29T19:38:51.509Z,14.63
2023-03-29T19:41:18.542Z,14.60
2023-03-29T19:43:45.821Z,14.75
2023-03-29T19:46:15.443Z,14.60
2023-03-29T19:48:42.612Z,14.65
2023-03-29T19:51:09.655Z,14.80
2023-03-29T19:53:38.628Z,14.35
2023-03-29T19:56:07.834Z,14.98
2023-03-29T19:58:35.036Z,14.60
2023-03-29T20:01:02.284Z,15.25
2023-03-29T20:03:29.846Z,14.63
2023-03-29T20:05:57.503Z,14.85
2023-03-29T20:08:24.831Z,15.23
2023-03-29T20:11:04.037Z,15.70
2023-03-29T20:13:38.130Z,15.27
2023-03-29T20:16:16.265Z,15.05
2023-03-29T20:18:47.471Z,14.88
2023-03-29T20:21:16.678Z,15.57
2023-03-29T20:23:44.822Z,15.18
2023-03-29T20:26:12.147Z,15.15
2023-03-29T20:28:42.651Z,15.20
2023-03-29T20:31:12.420Z,15.63
2023-03-29T20:33:39.996Z,15.88
2023-03-29T20:36:08.682Z,15.30
2023-03-29T20:38:36.300Z,14.98
2023-03-29T20:41:05.449Z,16.08
2023-03-29T20:43:38.039Z,15.38
2023-03-29T20:46:14.674Z,15.95
2023-03-29T20:48:53.189Z,15.45
2023-03-29T20:51:22.511Z,15.40
2023-03-29T20:53:50.342Z,15.43
2023-03-29T20:56:19.041Z,15.27
2023-03-29T20:58:46.906Z,15.63
2023-03-29T21:01:14.368Z,15.50
2023-03-29T21:03:42.388Z,15.52
2023-03-29T21:06:09.756Z,14.90
2023-03-29T21:08:38.825Z,14.98
2023-03-29T21:11:08.168Z,16.10
2023-03-29T21:13:37.175Z,16.00
2023-03-29T21:16:05.173Z,15.35
2023-03-29T21:18:32.326Z,14.98
2023-03-29T21:20:59.406Z,15.27
2023-03-29T21:23:26.995Z,15.93
2023-03-29T21:25:54.069Z,15.93
2023-03-29T21:28:21.590Z,15.90
2023-03-29T21:30:48.608Z,16.35
2023-03-29T21:33:15.780Z,15.88
2023-03-29T21:35:42.953Z,16.05
2023-03-29T21:38:09.941Z,15.20
2023-03-29T21:40:37.125Z,16.15
2023-03-29T21:43:04.688Z,16.48
2023-03-29T21:45:31.849Z,15.98
2023-03-29T21:47:59.041Z,16.05
2023-03-29T21:50:26.373Z,17.52
2023-03-29T21:52:53.657Z,16.05
2023-03-29T21:55:20.689Z,15.60
2023-03-29T21:57:48.848Z,15.60
2023-03-29T22:00:17.662Z,16.50
2023-03-29T22:02:45.932Z,16.05
2023-03-29T22:05:13.386Z,16.58
2023-03-29T22:07:40.664Z,15.98
2023-03-29T22:10:11.683Z,15.55
2023-03-29T22:12:39.706Z,15.63
2023-03-29T22:15:11.611Z,15.90
2023-03-29T22:17:38.788Z,15.98
2023-03-29T22:20:13.282Z,15.30
2023-03-29T22:22:46.163Z,14.80
2023-03-29T22:25:13.570Z,15.50
2023-03-29T22:27:42.905Z,15.52
2023-03-29T22:30:11.760Z,16.05
2023-03-29T22:32:39.135Z,15.65
2023-03-29T22:35:07.124Z,15.18
2023-03-29T22:37:41.126Z,14.85
2023-03-29T22:40:10.420Z,15.43
2023-03-29T22:42:37.651Z,14.90
2023-03-29T22:45:06.518Z,14.90
2023-03-29T22:47:35.290Z,14.80
2023-03-29T22:50:02.654Z,14.40
2023-03-29T22:52:29.831Z,14.30
2023-03-29T22:54:57.080Z,14.90
2023-03-29T22:57:24.222Z,14.63
2023-03-29T22:59:51.686Z,13.80
2023-03-29T23:02:21.765Z,13.85
2023-03-29T23:04:49.106Z,17.23
2023-03-29T23:07:16.639Z,15.43
2023-03-29T23:09:43.731Z,14.73
2023-03-29T23:12:11.023Z,13.65
2023-03-29T23:14:42.529Z,13.65
2023-03-29T23:17:10.340Z,14.43
2023-03-29T23:19:38.140Z,13.13
2023-03-29T23:22:05.190Z,13.60
2023-03-29T23:24:32.469Z,13.52
2023-03-29T23:27:01.072Z,13.43
2023-03-29T23:29:28.375Z,12.80
2023-03-29T23:31:56.810Z,13.23
2023-03-29T23:34:24.220Z,12.77
2023-03-29T23:36:51.351Z,11.27
2023-03-29T23:39:18.463Z,10.95
2023-03-29T23:41:45.736Z,11.13
2023-03-29T23:44:13.041Z,10.88
2023-03-29T23:46:40.987Z,10.38
2023-03-29T23:49:09.979Z,9.65
2023-03-29T23:51:39.112Z,9.63
2023-03-29T23:54:06.614Z,9.75
2023-03-29T23:56:33.894Z,9.27
2023-03-29T23:59:01.553Z,8.75
